Terminal Aerodrome Forecast
Issued by NWS

Home | Current Version | Previous Version | Text Only | Print | Product List | Glossary Off
Versions: 1 2 3 4 5 6 7 8 9 10 11 12 13 14 15 16 17 18 19

000
FTUS43 KGRB 291400 AAB
TAFCWA
TAF AMD
KCWA 291409Z 2914/3012 36009KT P6SM OVC005
      TEMPO 2915/2918 5SM -SHRA BR SCT005 OVC012
     FM291800 35009G15KT P6SM OVC014
     FM300300 03007KT P6SM BKN018
     FM300800 05005KT P6SM SCT016=

USA.gov is the U.S. government's official web portal to all federal, state and local government web resources and services.